sensor_id;sensor_type;location;lat;lon;timestamp;pressure;altitude;pressure_sealevel;temperature;humidity
77685;BME280;66844;46.092;18.268;2023-03-01T00:00:05;100245.50;;;1.73;88.56
77685;BME280;66844;46.092;18.268;2023-03-01T00:00:38;100259.50;;;1.73;89.26
77685;BME280;66844;46.092;18.268;2023-03-01T00:01:13;100250.75;;;1.74;89.04
77685;BME280;66844;46.092;18.268;2023-03-01T00:01:45;100248.97;;;1.76;88.53
77685;BME280;66844;46.092;18.268;2023-03-01T00:02:17;100249.00;;;1.75;88.85
77685;BME280;66844;46.092;18.268;2023-03-01T00:02:49;100257.72;;;1.77;88.70
77685;BME280;66844;46.092;18.268;2023-03-01T00:03:21;100244.69;;;1.71;88.80
77685;BME280;66844;46.092;18.268;2023-03-01T00:03:54;100245.56;;;1.70;89.09
77685;BME280;66844;46.092;18.268;2023-03-01T00:04:26;100252.56;;;1.65;89.91
77685;BME280;66844;46.092;18.268;2023-03-01T00:04:59;100248.28;;;1.59;89.14
77685;BME280;66844;46.092;18.268;2023-03-01T00:05:30;100249.13;;;1.61;89.61
77685;BME280;66844;46.092;18.268;2023-03-01T00:06:04;100252.56;;;1.66;89.12
77685;BME280;66844;46.092;18.268;2023-03-01T00:06:36;100249.91;;;1.68;89.52
77685;BME280;66844;46.092;18.268;2023-03-01T00:07:08;100247.34;;;1.65;89.26
77685;BME280;66844;46.092;18.268;2023-03-01T00:07:40;100252.53;;;1.71;90.06
77685;BME280;66844;46.092;18.268;2023-03-01T00:08:12;100253.38;;;1.74;88.86
77685;BME280;66844;46.092;18.268;2023-03-01T00:08:44;100256.88;;;1.73;89.49
77685;BME280;66844;46.092;18.268;2023-03-01T00:09:16;100251.63;;;1.75;89.89
77685;BME280;66844;46.092;18.268;2023-03-01T00:09:48;100253.38;;;1.73;88.89
77685;BME280;66844;46.092;18.268;2023-03-01T00:10:21;100247.25;;;1.72;89.51
77685;BME280;66844;46.092;18.268;2023-03-01T00:11:38;100245.50;;;1.74;89.33
77685;BME280;66844;46.092;18.268;2023-03-01T00:12:10;100254.25;;;1.73;89.98
77685;BME280;66844;46.092;18.268;2023-03-01T00:12:42;100250.75;;;1.71;89.00
77685;BME280;66844;46.092;18.268;2023-03-01T00:13:14;100246.38;;;1.72;89.70
77685;BME280;66844;46.092;18.268;2023-03-01T00:13:48;100242.94;;;1.70;89.51
77685;BME280;66844;46.092;18.268;2023-03-01T00:14:20;100249.00;;;1.75;88.96
77685;BME280;66844;46.092;18.268;2023-03-01T00:14:52;100248.09;;;1.76;89.12
77685;BME280;66844;46.092;18.268;2023-03-01T00:15:24;100244.63;;;1.74;89.39
77685;BME280;66844;46.092;18.268;2023-03-01T00:15:56;100242.00;;;1.74;89.09
77685;BME280;66844;46.092;18.268;2023-03-01T00:16:35;100242.00;;;1.74;90.06
77685;BME280;66844;46.092;18.268;2023-03-01T00:17:07;100242.00;;;1.72;89.43
77685;BME280;66844;46.092;18.268;2023-03-01T00:17:40;100243.75;;;1.75;89.72
77685;BME280;66844;46.092;18.268;2023-03-01T00:18:11;100242.84;;;1.77;89.26
77685;BME280;66844;46.092;18.268;2023-03-01T00:18:43;100244.59;;;1.77;89.26
77685;BME280;66844;46.092;18.268;2023-03-01T00:19:17;100246.38;;;1.75;89.98
77685;BME280;66844;46.092;18.268;2023-03-01T00:19:50;100240.22;;;1.76;90.07
77685;BME280;66844;46.092;18.268;2023-03-01T00:20:22;100244.59;;;1.78;89.37
77685;BME280;66844;46.092;18.268;2023-03-01T00:20:55;100236.72;;;1.78;89.05
77685;BME280;66844;46.092;18.268;2023-03-01T00:21:27;100246.38;;;1.73;90.16
77685;BME280;66844;46.092;18.268;2023-03-01T00:21:59;100238.47;;;1.78;90.03
77685;BME280;66844;46.092;18.268;2023-03-01T00:22:31;100244.56;;;1.81;89.57
77685;BME280;66844;46.092;18.268;2023-03-01T00:23:03;100237.56;;;1.79;89.56
77685;BME280;66844;46.092;18.268;2023-03-01T00:23:36;100241.97;;;1.77;89.76
77685;BME280;66844;46.092;18.268;2023-03-01T00:24:08;100241.97;;;1.77;89.56
77685;BME280;66844;46.092;18.268;2023-03-01T00:24:40;100240.28;;;1.71;90.13
77685;BME280;66844;46.092;18.268;2023-03-01T00:25:11;100235.06;;;1.68;89.22
77685;BME280;66844;46.092;18.268;2023-03-01T00:25:43;100245.50;;;1.71;89.40
77685;BME280;66844;46.092;18.268;2023-03-01T00:26:16;100242.00;;;1.74;89.68
77685;BME280;66844;46.092;18.268;2023-03-01T00:26:53;100240.28;;;1.71;89.18
77685;BME280;66844;46.092;18.268;2023-03-01T00:27:26;100246.44;;;1.70;89.78
77685;BME280;66844;46.092;18.268;2023-03-01T00:27:58;100234.16;;;1.72;89.82
77685;BME280;66844;46.092;18.268;2023-03-01T00:28:31;100239.41;;;1.72;90.21
77685;BME280;66844;46.092;18.268;2023-03-01T00:29:03;100241.13;;;1.75;89.32
77685;BME280;66844;46.092;18.268;2023-03-01T00:29:35;100240.28;;;1.73;89.36
77685;BME280;66844;46.092;18.268;2023-03-01T00:30:07;100241.19;;;1.69;90.16
77685;BME280;66844;46.092;18.268;2023-03-01T00:30:40;100245.50;;;1.71;89.06
77685;BME280;66844;46.092;18.268;2023-03-01T00:31:15;100235.94;;;1.69;90.00
77685;BME280;66844;46.092;18.268;2023-03-01T00:31:48;100243.75;;;1.73;89.19
77685;BME280;66844;46.092;18.268;2023-03-01T00:32:19;100237.66;;;1.73;90.10
77685;BME280;66844;46.092;18.268;2023-03-01T00:32:51;100245.47;;;1.76;89.86
77685;BME280;66844;46.092;18.268;2023-03-01T00:33:23;100244.63;;;1.74;89.09
77685;BME280;66844;46.092;18.268;2023-03-01T00:33:58;100246.44;;;1.69;89.56
77685;BME280;66844;46.092;18.268;2023-03-01T00:34:30;100246.47;;;1.66;90.05
77685;BME280;66844;46.092;18.268;2023-03-01T00:35:01;100238.59;;;1.64;89.57
77685;BME280;66844;46.092;18.268;2023-03-01T00:35:34;100243.75;;;1.72;89.45
77685;BME280;66844;46.092;18.268;2023-03-01T00:36:06;100237.69;;;1.70;90.38
77685;BME280;66844;46.092;18.268;2023-03-01T00:36:39;100232.50;;;1.64;90.47
77685;BME280;66844;46.092;18.268;2023-03-01T00:37:11;100242.06;;;1.69;89.65
77685;BME280;66844;46.092;18.268;2023-03-01T00:37:43;100243.75;;;1.73;90.05
77685;BME280;66844;46.092;18.268;2023-03-01T00:38:14;100234.19;;;1.71;89.71
77685;BME280;66844;46.092;18.268;2023-03-01T00:38:46;100239.34;;;1.75;89.49
77685;BME280;66844;46.092;18.268;2023-03-01T00:39:18;100238.56;;;1.70;90.01
77685;BME280;66844;46.092;18.268;2023-03-01T00:39:50;100238.56;;;1.70;89.13
77685;BME280;66844;46.092;18.268;2023-03-01T00:40:22;100235.97;;;1.64;90.12
77685;BME280;66844;46.092;18.268;2023-03-01T00:40:53;100241.19;;;1.69;90.07
77685;BME280;66844;46.092;18.268;2023-03-01T00:41:25;100232.41;;;1.71;89.98
77685;BME280;66844;46.092;18.268;2023-03-01T00:42:00;100227.16;;;1.73;90.00
77685;BME280;66844;46.092;18.268;2023-03-01T00:42:32;100233.28;;;1.75;90.14
77685;BME280;66844;46.092;18.268;2023-03-01T00:43:04;100228.91;;;1.72;89.25
77685;BME280;66844;46.092;18.268;2023-03-01T00:43:36;100231.53;;;1.74;89.81
77685;BME280;66844;46.092;18.268;2023-03-01T00:44:09;100237.66;;;1.73;90.36
77685;BME280;66844;46.092;18.268;2023-03-01T00:44:41;100232.41;;;1.74;89.75
77685;BME280;66844;46.092;18.268;2023-03-01T00:45:13;100228.91;;;1.74;90.38
77685;BME280;66844;46.092;18.268;2023-03-01T00:45:45;100229.78;;;1.74;89.40
77685;BME280;66844;46.092;18.268;2023-03-01T00:46:20;100228.03;;;1.72;89.35
77685;BME280;66844;46.092;18.268;2023-03-01T00:46:52;100234.16;;;1.74;90.09
77685;BME280;66844;46.092;18.268;2023-03-01T00:47:24;100231.50;;;1.75;89.30
77685;BME280;66844;46.092;18.268;2023-03-01T00:47:56;100230.56;;;1.79;90.28
77685;BME280;66844;46.092;18.268;2023-03-01T00:48:28;100232.41;;;1.74;90.28
77685;BME280;66844;46.092;18.268;2023-03-01T00:49:00;100228.13;;;1.63;89.54
77685;BME280;66844;46.092;18.268;2023-03-01T00:49:34;100225.56;;;1.60;90.48
77685;BME280;66844;46.092;18.268;2023-03-01T00:50:06;100223.81;;;1.59;90.00
77685;BME280;66844;46.092;18.268;2023-03-01T00:50:38;100218.56;;;1.57;90.44
77685;BME280;66844;46.092;18.268;2023-03-01T00:51:18;100213.28;;;1.60;90.11
77685;BME280;66844;46.092;18.268;2023-03-01T00:51:50;100221.94;;;1.70;90.12
77685;BME280;66844;46.092;18.268;2023-03-01T00:52:22;100223.69;;;1.71;89.92
77685;BME280;66844;46.092;18.268;2023-03-01T00:52:55;100215.81;;;1.69;89.85
77685;BME280;66844;46.092;18.268;2023-03-01T00:53:27;100219.28;;;1.71;90.06
77685;BME280;66844;46.092;18.268;2023-03-01T00:54:01;100216.69;;;1.68;90.60
77685;BME280;66844;46.092;18.268;2023-03-01T00:54:33;100220.16;;;1.72;90.50
77685;BME280;66844;46.092;18.268;2023-03-01T00:55:05;100221.03;;;1.72;90.34
77685;BME280;66844;46.092;18.268;2023-03-01T00:55:37;100213.16;;;1.74;89.51
77685;BME280;66844;46.092;18.268;2023-03-01T00:56:11;100211.47;;;1.68;89.67
77685;BME280;66844;46.092;18.268;2023-03-01T00:56:44;100213.19;;;1.69;89.46
77685;BME280;66844;46.092;18.268;2023-03-01T00:57:15;100210.59;;;1.69;89.62
77685;BME280;66844;46.092;18.268;2023-03-01T00:57:47;100220.16;;;1.75;90.61
77685;BME280;66844;46.092;18.268;2023-03-01T00:58:19;100215.00;;;1.64;90.61
77685;BME280;66844;46.092;18.268;2023-03-01T00:58:51;100224.56;;;1.68;90.69
77685;BME280;66844;46.092;18.268;2023-03-01T00:59:23;100213.19;;;1.71;90.79
77685;BME280;66844;46.092;18.268;2023-03-01T00:59:54;100214.03;;;1.71;89.69
77685;BME280;66844;46.092;18.268;2023-03-01T01:00:26;100207.97;;;1.69;90.38
77685;BME280;66844;46.092;18.268;2023-03-01T01:00:59;100213.19;;;1.71;90.45
77685;BME280;66844;46.092;18.268;2023-03-01T01:01:31;100212.28;;;1.72;89.66
77685;BME280;66844;46.092;18.268;2023-03-01T01:02:03;100211.41;;;1.71;89.83
77685;BME280;66844;46.092;18.268;2023-03-01T01:02:35;100210.50;;;1.75;89.79
77685;BME280;66844;46.092;18.268;2023-03-01T01:03:07;100207.91;;;1.74;89.42
77685;BME280;66844;46.092;18.268;2023-03-01T01:03:38;100204.47;;;1.70;89.90
77685;BME280;66844;46.092;18.268;2023-03-01T01:04:13;100202.66;;;1.74;90.20
77685;BME280;66844;46.092;18.268;2023-03-01T01:04:45;100208.75;;;1.76;90.60
77685;BME280;66844;46.092;18.268;2023-03-01T01:05:17;100213.13;;;1.78;89.96
77685;BME280;66844;46.092;18.268;2023-03-01T01:05:53;100199.13;;;1.78;89.72
77685;BME280;66844;46.092;18.268;2023-03-01T01:06:27;100207.84;;;1.81;89.97
77685;BME280;66844;46.092;18.268;2023-03-01T01:07:00;100213.03;;;1.83;89.29
77685;BME280;66844;46.092;18.268;2023-03-01T01:07:32;100200.00;;;1.78;90.04
77685;BME280;66844;46.092;18.268;2023-03-01T01:08:04;100207.88;;;1.78;90.25
77685;BME280;66844;46.092;18.268;2023-03-01T01:08:36;100203.47;;;1.82;90.12
77685;BME280;66844;46.092;18.268;2023-03-01T01:09:10;100206.91;;;1.84;89.54
77685;BME280;66844;46.092;18.268;2023-03-01T01:09:48;100207.84;;;1.81;89.76
77685;BME280;66844;46.092;18.268;2023-03-01T01:10:20;100209.59;;;1.81;89.02
77685;BME280;66844;46.092;18.268;2023-03-01T01:10:52;100203.47;;;1.79;89.65
77685;BME280;66844;46.092;18.268;2023-03-01T01:11:26;100202.63;;;1.77;90.05
77685;BME280;66844;46.092;18.268;2023-03-01T01:11:58;100209.59;;;1.81;89.57
77685;BME280;66844;46.092;18.268;2023-03-01T01:12:30;100211.34;;;1.80;89.12
77685;BME280;66844;46.092;18.268;2023-03-01T01:13:02;100209.56;;;1.82;88.92
77685;BME280;66844;46.092;18.268;2023-03-01T01:13:34;100201.75;;;1.78;89.93
77685;BME280;66844;46.092;18.268;2023-03-01T01:14:06;100214.78;;;1.82;88.95
77685;BME280;66844;46.092;18.268;2023-03-01T01:14:38;100209.56;;;1.82;89.98
77685;BME280;66844;46.092;18.268;2023-03-01T01:15:10;100205.19;;;1.83;90.15
77685;BME280;66844;46.092;18.268;2023-03-01T01:15:44;100205.22;;;1.81;89.14
77685;BME280;66844;46.092;18.268;2023-03-01T01:16:18;100201.69;;;1.84;90.11
77685;BME280;66844;46.092;18.268;2023-03-01T01:16:50;100202.59;;;1.81;90.10
77685;BME280;66844;46.092;18.268;2023-03-01T01:17:22;100199.09;;;1.79;89.68
77685;BME280;66844;46.092;18.268;2023-03-01T01:17:54;100195.63;;;1.76;89.35
77685;BME280;66844;46.092;18.268;2023-03-01T01:18:26;100196.47;;;1.81;89.88
77685;BME280;66844;46.092;18.268;2023-03-01T01:18:57;100199.13;;;1.78;89.18
77685;BME280;66844;46.092;18.268;2023-03-01T01:19:30;100197.34;;;1.80;89.86
77685;BME280;66844;46.092;18.268;2023-03-01T01:20:03;100193.91;;;1.76;90.07
77685;BME280;66844;46.092;18.268;2023-03-01T01:20:35;100197.34;;;1.80;89.41
77685;BME280;66844;46.092;18.268;2023-03-01T01:21:11;100192.97;;;1.79;89.20
77685;BME280;66844;46.092;18.268;2023-03-01T01:21:43;100183.44;;;1.75;89.22
77685;BME280;66844;46.092;18.268;2023-03-01T01:22:16;100198.22;;;1.79;90.33
77685;BME280;66844;46.092;18.268;2023-03-01T01:22:48;100195.59;;;1.80;89.19
77685;BME280;66844;46.092;18.268;2023-03-01T01:23:19;100193.84;;;1.79;89.12
77685;BME280;66844;46.092;18.268;2023-03-01T01:23:52;100192.97;;;1.80;89.64
77685;BME280;66844;46.092;18.268;2023-03-01T01:24:23;100200.00;;;1.77;89.81
77685;BME280;66844;46.092;18.268;2023-03-01T01:24:55;100187.78;;;1.77;90.01
77685;BME280;66844;46.092;18.268;2023-03-01T01:25:27;100195.59;;;1.79;90.28
77685;BME280;66844;46.092;18.268;2023-03-01T01:26:28;100189.50;;;1.78;89.85
77685;BME280;66844;46.092;18.268;2023-03-01T01:26:58;100190.41;;;1.76;89.84
77685;BME280;66844;46.092;18.268;2023-03-01T01:27:30;100193.91;;;1.76;90.55
77685;BME280;66844;46.092;18.268;2023-03-01T01:28:02;100188.66;;;1.78;89.54
77685;BME280;66844;46.092;18.268;2023-03-01T01:28:34;100190.34;;;1.80;90.14
77685;BME280;66844;46.092;18.268;2023-03-01T01:29:07;100195.59;;;1.82;89.37
77685;BME280;66844;46.092;18.268;2023-03-01T01:29:39;100193.81;;;1.82;90.20
77685;BME280;66844;46.092;18.268;2023-03-01T01:30:12;100187.66;;;1.86;89.97
77685;BME280;66844;46.092;18.268;2023-03-01T01:30:44;100180.69;;;1.82;89.40
77685;BME280;66844;46.092;18.268;2023-03-01T01:31:16;100190.34;;;1.79;89.66
77685;BME280;66844;46.092;18.268;2023-03-01T01:31:49;100185.09;;;1.80;90.36
77685;BME280;66844;46.092;18.268;2023-03-01T01:32:21;100189.47;;;1.80;90.20
77685;BME280;66844;46.092;18.268;2023-03-01T01:32:56;100181.69;;;1.74;90.24
77685;BME280;66844;46.092;18.268;2023-03-01T01:33:28;100186.03;;;1.76;90.45
77685;BME280;66844;46.092;18.268;2023-03-01T01:34:04;100183.34;;;1.79;89.79
77685;BME280;66844;46.092;18.268;2023-03-01T01:34:36;100185.09;;;1.79;90.02
77685;BME280;66844;46.092;18.268;2023-03-01T01:35:08;100182.53;;;1.76;90.63
77685;BME280;66844;46.092;18.268;2023-03-01T01:35:40;100186.94;;;1.72;90.85
77685;BME280;66844;46.092;18.268;2023-03-01T01:36:12;100188.72;;;1.70;90.19
77685;BME280;66844;46.092;18.268;2023-03-01T01:36:48;100184.31;;;1.72;89.97
77685;BME280;66844;46.092;18.268;2023-03-01T01:37:20;100180.81;;;1.73;90.66
77685;BME280;66844;46.092;18.268;2023-03-01T01:37:52;100179.94;;;1.74;90.48
77685;BME280;66844;46.092;18.268;2023-03-01T01:38:26;100182.53;;;1.77;90.53
77685;BME280;66844;46.092;18.268;2023-03-01T01:38:58;100186.06;;;1.73;89.83
77685;BME280;66844;46.092;18.268;2023-03-01T01:39:30;100180.78;;;1.76;89.99
77685;BME280;66844;46.092;18.268;2023-03-01T01:40:03;100170.28;;;1.76;90.32
77685;BME280;66844;46.092;18.268;2023-03-01T01:40:45;100179.06;;;1.74;90.71
77685;BME280;66844;46.092;18.268;2023-03-01T01:41:18;100175.56;;;1.73;90.00
77685;BME280;66844;46.092;18.268;2023-03-01T01:41:51;100175.56;;;1.73;90.65
77685;BME280;66844;46.092;18.268;2023-03-01T01:42:23;100180.81;;;1.73;90.19
77685;BME280;66844;46.092;18.268;2023-03-01T01:42:55;100174.69;;;1.71;90.07
77685;BME280;66844;46.092;18.268;2023-03-01T01:43:29;100175.63;;;1.70;90.61
77685;BME280;66844;46.092;18.268;2023-03-01T01:44:28;100175.56;;;1.73;91.33
77685;BME280;66844;46.092;18.268;2023-03-01T01:45:34;100167.72;;;1.72;91.30
77685;BME280;66844;46.092;18.268;2023-03-01T01:46:20;100174.69;;;1.71;90.61
77685;BME280;66844;46.092;18.268;2023-03-01T01:47:03;100163.38;;;1.71;90.24
77685;BME280;66844;46.092;18.268;2023-03-01T01:47:37;100174.69;;;1.71;90.18
77685;BME280;66844;46.092;18.268;2023-03-01T01:48:16;100176.47;;;1.71;90.75
77685;BME280;66844;46.092;18.268;2023-03-01T01:48:55;100177.31;;;1.74;90.61
77685;BME280;66844;46.092;18.268;2023-03-01T01:49:40;100172.13;;;1.70;90.96
77685;BME280;66844;46.092;18.268;2023-03-01T01:50:18;100179.09;;;1.69;91.08
77685;BME280;66844;46.092;18.268;2023-03-01T01:50:57;100175.56;;;1.75;91.12
77685;BME280;66844;46.092;18.268;2023-03-01T01:51:37;100178.16;;;1.78;90.04
77685;BME280;66844;46.092;18.268;2023-03-01T01:52:26;100174.66;;;1.76;90.78
77685;BME280;66844;46.092;18.268;2023-03-01T01:52:59;100170.31;;;1.73;90.26
77685;BME280;66844;46.092;18.268;2023-03-01T01:53:31;100180.78;;;1.76;91.23
77685;BME280;66844;46.092;18.268;2023-03-01T01:54:10;100178.16;;;1.76;90.28
77685;BME280;66844;46.092;18.268;2023-03-01T01:55:02;100173.81;;;1.72;90.82
77685;BME280;66844;46.092;18.268;2023-03-01T01:55:37;100179.03;;;1.77;90.69
77685;BME280;66844;46.092;18.268;2023-03-01T01:56:13;100173.81;;;1.74;90.92
77685;BME280;66844;46.092;18.268;2023-03-01T01:56:51;100180.78;;;1.78;90.91
77685;BME280;66844;46.092;18.268;2023-03-01T01:57:55;100179.84;;;1.82;89.94
77685;BME280;66844;46.092;18.268;2023-03-01T01:58:29;100179.84;;;1.80;90.12
77685;BME280;66844;46.092;18.268;2023-03-01T01:59:02;100178.13;;;1.79;90.28
77685;BME280;66844;46.092;18.268;2023-03-01T01:59:34;100179.91;;;1.76;90.35
77685;BME280;66844;46.092;18.268;2023-03-01T02:00:20;100179.06;;;1.74;90.26
77685;BME280;66844;46.092;18.268;2023-03-01T02:00:53;100177.31;;;1.73;90.21
77685;BME280;66844;46.092;18.268;2023-03-01T02:01:25;100179.94;;;1.74;91.25
77685;BME280;66844;46.092;18.268;2023-03-01T02:02:00;100184.28;;;1.78;90.79
77685;BME280;66844;46.092;18.268;2023-03-01T02:02:33;100176.41;;;1.78;91.13
77685;BME280;66844;46.092;18.268;2023-03-01T02:03:12;100175.56;;;1.75;90.30
77685;BME280;66844;46.092;18.268;2023-03-01T02:03:48;100179.00;;;1.80;90.71
77685;BME280;66844;46.092;18.268;2023-03-01T02:04:21;100173.78;;;1.77;90.36
77685;BME280;66844;46.092;18.268;2023-03-01T02:05:03;100179.03;;;1.78;90.52
77685;BME280;66844;46.092;18.268;2023-03-01T02:05:52;100171.16;;;1.78;90.53
77685;BME280;66844;46.092;18.268;2023-03-01T02:06:32;100171.13;;;1.80;90.91
77685;BME280;66844;46.092;18.268;2023-03-01T02:07:15;100175.50;;;1.81;90.17
77685;BME280;66844;46.092;18.268;2023-03-01T02:07:48;100178.16;;;1.78;89.87
77685;BME280;66844;46.092;18.268;2023-03-01T02:08:22;100176.41;;;1.77;90.41
77685;BME280;66844;46.092;18.268;2023-03-01T02:08:59;100167.63;;;1.81;91.33
77685;BME280;66844;46.092;18.268;2023-03-01T02:09:32;100172.00;;;1.80;91.10
77685;BME280;66844;46.092;18.268;2023-03-01T02:10:04;100164.13;;;1.79;91.10
77685;BME280;66844;46.092;18.268;2023-03-01T02:10:37;100170.25;;;1.81;90.05
77685;BME280;66844;46.092;18.268;2023-03-01T02:11:11;100165.88;;;1.80;90.11
77685;BME280;66844;46.092;18.268;2023-03-01T02:11:47;100165.88;;;1.80;90.37
77685;BME280;66844;46.092;18.268;2023-03-01T02:12:23;100170.25;;;1.81;90.59
77685;BME280;66844;46.092;18.268;2023-03-01T02:12:56;100169.31;;;1.85;90.64
77685;BME280;66844;46.092;18.268;2023-03-01T02:13:28;100156.25;;;1.80;90.78
77685;BME280;66844;46.092;18.268;2023-03-01T02:14:01;100157.09;;;1.82;91.08
77685;BME280;66844;46.092;18.268;2023-03-01T02:14:33;100164.06;;;1.83;90.20
77685;BME280;66844;46.092;18.268;2023-03-01T02:15:05;100159.75;;;1.81;91.02
77685;BME280;66844;46.092;18.268;2023-03-01T02:15:39;100161.50;;;1.82;90.69
77685;BME280;66844;46.092;18.268;2023-03-01T02:16:14;100157.97;;;1.83;91.08
77685;BME280;66844;46.092;18.268;2023-03-01T02:16:48;100159.72;;;1.84;90.91
77685;BME280;66844;46.092;18.268;2023-03-01T02:17:21;100161.41;;;1.88;90.26
77685;BME280;66844;46.092;18.268;2023-03-01T02:17:54;100166.66;;;1.86;91.17
77685;BME280;66844;46.092;18.268;2023-03-01T02:18:26;100162.31;;;1.84;90.41
77685;BME280;66844;46.092;18.268;2023-03-01T02:18:59;100149.16;;;1.88;91.02
77685;BME280;66844;46.092;18.268;2023-03-01T02:19:54;100153.53;;;1.89;90.09
77685;BME280;66844;46.092;18.268;2023-03-01T02:20:44;100146.53;;;1.88;90.13
77685;BME280;66844;46.092;18.268;2023-03-01T02:21:41;100156.06;;;1.95;89.76
77685;BME280;66844;46.092;18.268;2023-03-01T02:22:24;100150.88;;;1.92;89.61
77685;BME280;66844;46.092;18.268;2023-03-01T02:22:57;100154.38;;;1.93;89.70
77685;BME280;66844;46.092;18.268;2023-03-01T02:23:29;100149.94;;;1.95;90.09
77685;BME280;66844;46.092;18.268;2023-03-01T02:24:16;100146.59;;;1.85;90.43
77685;BME280;66844;46.092;18.268;2023-03-01T02:25:12;100149.13;;;1.91;90.08
77685;BME280;66844;46.092;18.268;2023-03-01T02:26:40;100143.03;;;1.88;90.21
77685;BME280;66844;46.092;18.268;2023-03-01T02:27:13;100145.63;;;1.92;90.22
77685;BME280;66844;46.092;18.268;2023-03-01T02:28:58;100147.38;;;1.92;90.28
77685;BME280;66844;46.092;18.268;2023-03-01T02:29:30;100147.31;;;1.97;90.53
77685;BME280;66844;46.092;18.268;2023-03-01T02:30:02;100144.69;;;1.95;89.67
77685;BME280;66844;46.092;18.268;2023-03-01T02:30:34;100148.19;;;1.95;89.74
77685;BME280;66844;46.092;18.268;2023-03-01T02:31:09;100151.66;;;1.99;90.07
77685;BME280;66844;46.092;18.268;2023-03-01T02:32:02;100152.53;;;2.00;90.19
77685;BME280;66844;46.092;18.268;2023-03-01T02:32:35;100142.94;;;1.97;89.42
77685;BME280;66844;46.092;18.268;2023-03-01T02:33:07;100143.75;;;2.02;89.41
77685;BME280;66844;46.092;18.268;2023-03-01T02:33:39;100140.28;;;1.99;90.13
77685;BME280;66844;46.092;18.268;2023-03-01T02:34:17;100147.22;;;2.04;90.19
77685;BME280;66844;46.092;18.268;2023-03-01T02:34:51;100134.13;;;2.01;89.97
77685;BME280;66844;46.092;18.268;2023-03-01T02:35:24;100147.22;;;2.04;89.50
77685;BME280;66844;46.092;18.268;2023-03-01T02:35:56;100150.69;;;2.06;89.12
77685;BME280;66844;46.092;18.268;2023-03-01T02:36:31;100142.00;;;2.03;89.38
77685;BME280;66844;46.092;18.268;2023-03-01T02:37:15;100141.94;;;2.07;89.41
77685;BME280;66844;46.092;18.268;2023-03-01T02:37:52;100149.81;;;2.07;89.87
77685;BME280;66844;46.092;18.268;2023-03-01T02:38:24;100149.81;;;2.07;90.14
77685;BME280;66844;46.092;18.268;2023-03-01T02:38:59;100147.25;;;2.01;89.83
77685;BME280;66844;46.092;18.268;2023-03-01T02:39:38;100143.72;;;2.04;90.23
77685;BME280;66844;46.092;18.268;2023-03-01T02:40:17;100148.06;;;2.08;89.99
77685;BME280;66844;46.092;18.268;2023-03-01T02:40:51;100148.06;;;2.08;89.79
77685;BME280;66844;46.092;18.268;2023-03-01T02:41:25;100143.63;;;2.10;89.53
77685;BME280;66844;46.092;18.268;2023-03-01T02:41:58;100149.75;;;2.09;89.42
77685;BME280;66844;46.092;18.268;2023-03-01T02:42:35;100141.94;;;2.06;89.65
77685;BME280;66844;46.092;18.268;2023-03-01T02:43:10;100137.56;;;2.06;89.80
77685;BME280;66844;46.092;18.268;2023-03-01T02:43:43;100141.00;;;2.11;89.54
77685;BME280;66844;46.092;18.268;2023-03-01T02:44:15;100147.97;;;2.12;90.19
77685;BME280;66844;46.092;18.268;2023-03-01T02:44:49;100149.75;;;2.10;89.07
77685;BME280;66844;46.092;18.268;2023-03-01T02:45:21;100147.19;;;2.07;90.02
77685;BME280;66844;46.092;18.268;2023-03-01T02:45:57;100154.22;;;2.04;90.18
77685;BME280;66844;46.092;18.268;2023-03-01T02:46:30;100149.03;;;2.01;90.68
77685;BME280;66844;46.092;18.268;2023-03-01T02:47:03;100147.28;;;2.00;90.38
77685;BME280;66844;46.092;18.268;2023-03-01T02:47:35;100148.97;;;2.04;89.90
77685;BME280;66844;46.092;18.268;2023-03-01T02:48:07;100148.09;;;2.02;90.04
77685;BME280;66844;46.092;18.268;2023-03-01T02:48:45;100147.22;;;2.04;89.88
77685;BME280;66844;46.092;18.268;2023-03-01T02:49:26;100149.81;;;2.06;89.55
77685;BME280;66844;46.092;18.268;2023-03-01T02:49:59;100148.09;;;2.05;90.14
77685;BME280;66844;46.092;18.268;2023-03-01T02:51:52;100149.91;;;2.00;90.07
77685;BME280;66844;46.092;18.268;2023-03-01T02:54:54;100146.41;;;1.99;90.12
77685;BME280;66844;46.092;18.268;2023-03-01T02:55:27;100151.66;;;2.01;90.05
77685;BME280;66844;46.092;18.268;2023-03-01T02:56:00;100152.53;;;2.00;90.62
77685;BME280;66844;46.092;18.268;2023-03-01T02:56:32;100158.66;;;2.00;90.47
77685;BME280;66844;46.092;18.268;2023-03-01T02:57:05;100147.38;;;1.93;90.01
77685;BME280;66844;46.092;18.268;2023-03-01T02:57:40;100156.94;;;1.96;90.70
77685;BME280;66844;46.092;18.268;2023-03-01T02:58:12;100146.41;;;1.98;90.04
77685;BME280;66844;46.092;18.268;2023-03-01T02:58:44;100150.81;;;1.97;90.42
77685;BME280;66844;46.092;18.268;2023-03-01T02:59:22;100141.16;;;1.99;90.51
77685;BME280;66844;46.092;18.268;2023-03-01T02:59:56;100148.09;;;2.03;89.73
77685;BME280;66844;46.092;18.268;2023-03-01T03:00:35;100148.97;;;2.02;89.76
77685;BME280;66844;46.092;18.268;2023-03-01T03:01:12;100147.22;;;2.04;90.51
77685;BME280;66844;46.092;18.268;2023-03-01T03:01:46;100147.22;;;2.03;90.12
77685;BME280;66844;46.092;18.268;2023-03-01T03:02:29;100140.31;;;1.97;90.15
77685;BME280;66844;46.092;18.268;2023-03-01T03:03:07;100146.41;;;1.99;90.60
77685;BME280;66844;46.092;18.268;2023-03-01T03:03:39;100146.41;;;2.01;90.56
77685;BME280;66844;46.092;18.268;2023-03-01T03:04:15;100147.28;;;2.00;89.88
77685;BME280;66844;46.092;18.268;2023-03-01T03:04:52;100150.03;;;1.89;90.48
77685;BME280;66844;46.092;18.268;2023-03-01T03:05:27;100151.84;;;1.85;90.50
77685;BME280;66844;46.092;18.268;2023-03-01T03:05:59;100147.47;;;1.86;90.60
77685;BME280;66844;46.092;18.268;2023-03-01T03:06:30;100146.50;;;1.90;90.63